Time;durP1;ratioP1;P1;durP2;ratioP2;P2;SDS_P1;SDS_P2;PMS_P1;PMS_P2;Temp;Humidity;BMP_temperature;BMP_pressure;BME280_temperature;BME280_humidity;BME280_pressure;Samples;Min_cycle;Max_cycle;Signal;HPM_P1;HPM_P2
2021/09/04 00:01:30;;;;;;;34.42;17.67;;;12.40;99.90;;;;;;7369196;19;20026;-67
2021/09/04 00:03:55;;;;;;;32.17;16.20;;;12.40;99.90;;;;;;7371725;19;20570;-67
2021/09/04 00:06:21;;;;;;;31.73;16.60;;;12.40;99.90;;;;;;7370494;19;20029;-67
2021/09/04 00:08:46;;;;;;;40.42;17.05;;;12.40;99.90;;;;;;7367988;19;20010;-67
2021/09/04 00:11:12;;;;;;;36.92;17.20;;;12.40;99.90;;;;;;7368765;19;20023;-67
2021/09/04 00:13:38;;;;;;;38.10;18.02;;;12.40;99.90;;;;;;7370092;19;20019;-67
2021/09/04 00:16:03;;;;;;;30.50;16.83;;;12.50;99.90;;;;;;7370424;19;20021;-67
2021/09/04 00:18:33;;;;;;;36.38;18.45;;;12.40;99.90;;;;;;7368759;19;20055;-67
2021/09/04 00:20:59;;;;;;;32.58;17.85;;;12.40;99.90;;;;;;7369088;19;20117;-67
2021/09/04 00:23:24;;;;;;;32.90;17.40;;;12.40;99.90;;;;;;7368814;19;20086;-67
2021/09/04 00:25:50;;;;;;;33.22;17.98;;;12.40;99.90;;;;;;7371810;19;20106;-67
2021/09/04 00:28:15;;;;;;;34.40;17.55;;;12.40;99.90;;;;;;7368322;19;20365;-67
2021/09/04 00:30:41;;;;;;;33.30;18.20;;;12.30;99.90;;;;;;7368180;19;20038;-67
2021/09/04 00:33:06;;;;;;;39.38;17.70;;;12.30;99.90;;;;;;7371027;19;20041;-67
2021/09/04 00:35:32;;;;;;;38.70;18.77;;;12.40;99.90;;;;;;7369304;19;20022;-67
2021/09/04 00:37:57;;;;;;;35.72;18.13;;;12.40;99.90;;;;;;7369141;19;20060;-67
2021/09/04 00:40:23;;;;;;;37.00;19.05;;;12.30;99.90;;;;;;7366264;19;20014;-67
2021/09/04 00:42:48;;;;;;;35.28;18.20;;;12.30;99.90;;;;;;7370657;19;20018;-67
2021/09/04 00:45:13;;;;;;;33.75;17.77;;;12.30;99.90;;;;;;7370032;19;20021;-67
2021/09/04 00:47:39;;;;;;;36.13;18.60;;;12.20;99.90;;;;;;7368900;19;20022;-67
2021/09/04 00:50:04;;;;;;;34.55;17.55;;;12.30;99.90;;;;;;7370594;19;20475;-67
2021/09/04 00:52:30;;;;;;;38.47;18.05;;;12.20;99.90;;;;;;7366555;19;20018;-67
2021/09/04 00:54:55;;;;;;;38.65;18.33;;;12.20;99.90;;;;;;7370314;19;20014;-67
2021/09/04 00:57:21;;;;;;;37.63;17.90;;;12.20;99.90;;;;;;7368085;19;20018;-67
2021/09/04 01:05:29;;;;;;;34.55;17.48;;;12.10;99.90;;;;;;7369492;19;20009;-67
2021/09/04 01:07:56;;;;;;;37.10;18.80;;;12.10;99.90;;;;;;7370002;19;20071;-67
2021/09/04 01:10:23;;;;;;;35.22;18.00;;;12.10;99.90;;;;;;7369835;19;20010;-67
2021/09/04 01:12:48;;;;;;;34.35;16.73;;;12.00;99.90;;;;;;7371213;19;20017;-67
2021/09/04 01:15:19;;;;;;;35.53;18.38;;;12.00;99.90;;;;;;7367667;19;20098;-67
2021/09/04 01:17:45;;;;;;;37.67;17.88;;;12.00;99.90;;;;;;7369648;19;20030;-67
2021/09/04 01:20:10;;;;;;;42.40;18.90;;;12.00;99.90;;;;;;7370572;19;20017;-67
2021/09/04 01:22:36;;;;;;;35.35;17.58;;;11.90;99.90;;;;;;7371983;19;20019;-67
2021/09/04 01:25:01;;;;;;;33.83;17.02;;;12.00;99.90;;;;;;7378874;19;20022;-60
2021/09/04 01:27:27;;;;;;;35.42;17.80;;;11.90;99.90;;;;;;7377013;19;20014;-60
2021/09/04 01:29:53;;;;;;;35.53;18.05;;;11.80;99.90;;;;;;7377202;19;20043;-60
2021/09/04 01:32:18;;;;;;;31.95;16.55;;;11.80;99.90;;;;;;7374308;19;20026;-60
2021/09/04 01:34:44;;;;;;;34.83;16.70;;;11.80;99.90;;;;;;7377740;19;20033;-59
2021/09/04 01:37:10;;;;;;;36.08;16.50;;;11.70;99.90;;;;;;7373030;19;20098;-60
2021/09/04 01:39:35;;;;;;;32.90;16.13;;;11.70;99.90;;;;;;7376471;19;20106;-60
2021/09/04 01:42:01;;;;;;;31.90;16.05;;;11.70;99.90;;;;;;7375567;19;20034;-60
2021/09/04 01:44:26;;;;;;;34.42;17.30;;;11.60;99.90;;;;;;7375433;19;20039;-60
2021/09/04 01:46:52;;;;;;;30.67;16.50;;;11.60;99.90;;;;;;7376800;19;20018;-60
2021/09/04 01:49:17;;;;;;;37.20;18.30;;;11.60;99.90;;;;;;7374525;19;20039;-59
2021/09/04 01:51:43;;;;;;;39.63;18.38;;;11.60;99.90;;;;;;7374689;19;20042;-60
2021/09/04 01:54:08;;;;;;;39.13;17.85;;;11.60;99.90;;;;;;7376058;19;20498;-59
2021/09/04 01:56:34;;;;;;;32.58;18.40;;;11.60;99.90;;;;;;7376621;19;20023;-60
2021/09/04 01:58:59;;;;;;;34.78;18.27;;;11.60;99.90;;;;;;7374731;19;20010;-59
2021/09/04 02:01:24;;;;;;;35.95;17.95;;;11.60;99.90;;;;;;7375813;19;20065;-60
2021/09/04 02:03:50;;;;;;;33.92;16.77;;;11.60;99.90;;;;;;7378080;19;20372;-60
2021/09/04 02:06:15;;;;;;;36.88;17.50;;;11.60;99.90;;;;;;7373835;19;20023;-60
2021/09/04 02:08:41;;;;;;;32.50;17.27;;;11.60;99.90;;;;;;7376564;19;20030;-60
2021/09/04 02:11:06;;;;;;;34.47;17.83;;;11.50;99.90;;;;;;7376343;19;20031;-60
2021/09/04 02:13:32;;;;;;;31.42;17.23;;;11.60;99.90;;;;;;7377266;19;20014;-60
2021/09/04 02:15:58;;;;;;;39.25;17.33;;;11.50;99.90;;;;;;7378171;19;20363;-59
2021/09/04 02:18:25;;;;;;;35.17;17.15;;;11.50;99.90;;;;;;7375135;19;20026;-60
2021/09/04 02:20:52;;;;;;;31.60;16.85;;;11.50;99.90;;;;;;7375876;19;20759;-60
2021/09/04 02:23:18;;;;;;;30.70;16.65;;;11.40;99.90;;;;;;7376033;19;20017;-60
2021/09/04 02:25:44;;;;;;;34.45;16.40;;;11.40;99.90;;;;;;7377883;19;20018;-60
2021/09/04 02:28:11;;;;;;;32.70;16.40;;;11.40;99.90;;;;;;7374743;19;20026;-60
2021/09/04 02:30:37;;;;;;;41.47;18.38;;;11.50;99.90;;;;;;7371372;19;20343;-59
2021/09/04 02:33:03;;;;;;;38.78;17.10;;;11.50;99.90;;;;;;7377389;19;20033;-60
2021/09/04 02:35:28;;;;;;;41.63;17.95;;;11.60;99.90;;;;;;7375540;19;20022;-60
2021/09/04 02:37:54;;;;;;;41.22;18.52;;;11.60;99.90;;;;;;7374690;19;20374;-60
2021/09/04 02:40:19;;;;;;;39.45;18.30;;;11.70;99.90;;;;;;7373674;19;20022;-60
2021/09/04 02:42:46;;;;;;;36.35;18.77;;;11.80;99.90;;;;;;7374253;19;20022;-60
2021/09/04 02:45:13;;;;;;;44.35;19.80;;;11.90;99.90;;;;;;7375015;19;20057;-60
2021/09/04 02:47:38;;;;;;;47.30;19.33;;;11.90;99.90;;;;;;7375543;19;20014;-60
2021/09/04 02:50:04;;;;;;;46.15;19.42;;;12.10;99.90;;;;;;7376140;19;20033;-60
2021/09/04 02:52:30;;;;;;;41.47;17.15;;;12.30;99.90;;;;;;7372342;19;20373;-60
2021/09/04 02:54:56;;;;;;;41.50;18.20;;;12.40;99.90;;;;;;7376123;19;20101;-60
2021/09/04 02:57:22;;;;;;;41.75;18.75;;;12.50;99.90;;;;;;7374404;19;20026;-60
2021/09/04 02:59:48;;;;;;;46.28;18.63;;;12.50;99.90;;;;;;7373900;19;20026;-60
2021/09/04 03:02:16;;;;;;;55.72;20.98;;;12.60;99.90;;;;;;7373077;19;20029;-60
2021/09/04 03:04:42;;;;;;;48.97;19.70;;;12.80;99.90;;;;;;7375963;19;20023;-60
2021/09/04 03:07:07;;;;;;;78.50;22.23;;;12.80;99.90;;;;;;7372327;19;20349;-60
2021/09/04 03:09:33;;;;;;;48.60;20.52;;;13.00;99.90;;;;;;7373872;19;20022;-60
2021/09/04 03:12:00;;;;;;;71.47;21.75;;;13.00;99.90;;;;;;7374128;19;20023;-60
2021/09/04 03:14:26;;;;;;;65.97;20.80;;;13.10;99.90;;;;;;7372842;19;20017;-60
2021/09/04 03:16:52;;;;;;;56.15;20.58;;;13.20;99.90;;;;;;7373958;19;20023;-60
2021/09/04 03:19:18;;;;;;;47.42;19.80;;;13.20;99.90;;;;;;7372735;19;20023;-60
2021/09/04 03:21:45;;;;;;;48.33;19.00;;;13.20;99.90;;;;;;7372123;19;20045;-60
2021/09/04 03:24:11;;;;;;;46.63;18.80;;;13.20;99.90;;;;;;7374433;19;20578;-60
2021/09/04 03:26:37;;;;;;;47.42;20.65;;;13.20;99.90;;;;;;7373340;19;20026;-60
2021/09/04 03:29:03;;;;;;;37.22;17.15;;;13.20;99.90;;;;;;7371735;19;20047;-60
2021/09/04 03:31:29;;;;;;;37.22;17.23;;;13.20;99.90;;;;;;7372669;19;20014;-60
2021/09/04 03:33:55;;;;;;;33.85;17.15;;;13.20;99.90;;;;;;7375450;19;20010;-60
2021/09/04 03:36:20;;;;;;;42.65;18.90;;;13.20;99.90;;;;;;7373000;19;20015;-60
2021/09/04 03:38:46;;;;;;;34.17;16.48;;;13.20;99.90;;;;;;7373727;19;20025;-60
2021/09/04 03:41:12;;;;;;;36.95;17.83;;;13.20;99.90;;;;;;7373815;19;20711;-60
2021/09/04 03:43:38;;;;;;;45.17;18.17;;;13.20;99.90;;;;;;7369611;19;21080;-60
2021/09/04 03:46:05;;;;;;;34.75;17.88;;;;;;;;;;7373201;19;20051;-60
2021/09/04 03:48:33;;;;;;;41.45;18.73;;;13.10;99.90;;;;;;7371824;19;20018;-60
2021/09/04 03:50:59;;;;;;;41.40;17.35;;;13.10;99.90;;;;;;7372207;19;20018;-60
2021/09/04 03:53:25;;;;;;;37.20;17.02;;;13.20;99.90;;;;;;7371896;19;20029;-60
2021/09/04 03:55:51;;;;;;;41.92;18.42;;;13.20;99.90;;;;;;7373383;19;20031;-60
2021/09/04 03:58:17;;;;;;;37.25;16.95;;;13.20;99.90;;;;;;7371182;19;20018;-60
2021/09/04 04:00:44;;;;;;;31.33;16.52;;;13.30;99.90;;;;;;7371272;19;20015;-60
2021/09/04 04:03:10;;;;;;;76.65;14.70;;;13.20;99.90;;;;;;7373737;19;20050;-60
2021/09/04 04:05:35;;;;;;;122.05;16.02;;;13.20;99.90;;;;;;7371137;19;20367;-60
2021/09/04 04:08:01;;;;;;;28.42;15.07;;;13.20;99.90;;;;;;7373115;19;20018;-60
2021/09/04 04:10:26;;;;;;;31.70;13.93;;;13.10;99.90;;;;;;7371306;19;20006;-60
2021/09/04 04:12:52;;;;;;;35.67;14.85;;;13.10;99.90;;;;;;7372447;19;20400;-60
2021/09/04 04:15:18;;;;;;;24.17;13.00;;;13.10;99.90;;;;;;7371197;19;20015;-60
2021/09/04 04:17:44;;;;;;;31.35;14.27;;;13.10;99.90;;;;;;7370648;19;20477;-60
2021/09/04 04:20:10;;;;;;;26.60;13.27;;;13.10;99.90;;;;;;7371215;19;20018;-60
2021/09/04 04:22:36;;;;;;;24.63;13.48;;;13.10;99.90;;;;;;7369604;19;20021;-60
2021/09/04 04:25:03;;;;;;;52.25;13.18;;;13.10;99.90;;;;;;7372505;19;20022;-60
2021/09/04 04:27:31;;;;;;;24.52;13.63;;;13.00;99.90;;;;;;7369301;19;20044;-60
2021/09/04 04:29:56;;;;;;;24.20;13.20;;;13.00;99.90;;;;;;7371637;19;20018;-60
2021/09/04 04:32:23;;;;;;;34.33;14.00;;;13.10;99.90;;;;;;7370052;19;20021;-60
2021/09/04 04:34:50;;;;;;;30.75;13.63;;;13.10;99.90;;;;;;7371905;19;20011;-60
2021/09/04 04:37:17;;;;;;;28.50;13.57;;;13.10;99.90;;;;;;7371036;19;20006;-60
2021/09/04 04:39:43;;;;;;;28.73;14.55;;;13.10;99.90;;;;;;7370069;19;20057;-60
2021/09/04 04:42:09;;;;;;;27.25;14.07;;;13.10;99.90;;;;;;7370205;19;20918;-59
2021/09/04 04:44:36;;;;;;;27.20;14.25;;;13.10;99.90;;;;;;7370250;19;20082;-60
2021/09/04 04:47:02;;;;;;;30.00;14.50;;;13.20;99.90;;;;;;7370878;19;20372;-60
2021/09/04 04:49:28;;;;;;;27.38;14.38;;;13.20;99.90;;;;;;7370420;19;20025;-60
2021/09/04 04:51:53;;;;;;;26.52;13.48;;;13.20;99.90;;;;;;7370365;19;20045;-60
2021/09/04 04:54:20;;;;;;;26.38;14.52;;;13.40;99.90;;;;;;7372745;19;20014;-60
2021/09/04 04:56:45;;;;;;;25.10;13.88;;;13.30;99.90;;;;;;7376675;19;20787;-60
2021/09/04 04:59:12;;;;;;;34.47;14.70;;;13.30;99.90;;;;;;7377938;19;20544;-60
2021/09/04 05:01:38;;;;;;;29.67;14.57;;;13.40;99.90;;;;;;7375804;19;20086;-59
2021/09/04 05:04:03;;;;;;;28.63;14.43;;;13.40;99.90;;;;;;7377494;19;20805;-59
2021/09/04 05:06:29;;;;;;;25.30;13.60;;;13.40;99.90;;;;;;7378145;19;20100;-59
2021/09/04 05:08:55;;;;;;;33.42;13.13;;;13.40;99.90;;;;;;7376429;19;20748;-59
2021/09/04 05:11:21;;;;;;;23.42;11.40;;;13.50;99.90;;;;;;7376652;19;20018;-59
2021/09/04 05:13:47;;;;;;;26.27;12.10;;;13.50;99.90;;;;;;7375606;19;20017;-59
2021/09/04 05:16:14;;;;;;;22.52;11.93;;;13.50;99.90;;;;;;7378375;19;20097;-59
2021/09/04 05:18:40;;;;;;;22.77;11.75;;;13.50;99.90;;;;;;7374384;19;20121;-59
2021/09/04 05:21:06;;;;;;;22.85;12.65;;;13.40;99.90;;;;;;7375683;19;20006;-59
2021/09/04 05:23:32;;;;;;;21.92;11.02;;;13.40;99.90;;;;;;7376629;19;20010;-59
2021/09/04 05:25:57;;;;;;;21.45;11.15;;;13.40;99.90;;;;;;7372401;19;20375;-59
2021/09/04 05:28:23;;;;;;;23.67;12.35;;;13.30;99.90;;;;;;7375679;19;20023;-59
2021/09/04 05:30:48;;;;;;;35.92;14.90;;;13.40;99.90;;;;;;7375654;19;20030;-59
2021/09/04 05:33:14;;;;;;;22.35;11.85;;;13.40;99.90;;;;;;7377441;19;20099;-59
2021/09/04 05:35:39;;;;;;;24.33;12.95;;;13.40;99.90;;;;;;7375303;19;20025;-59
2021/09/04 05:38:05;;;;;;;25.83;12.95;;;13.50;99.90;;;;;;7376763;19;20102;-59
2021/09/04 05:40:30;;;;;;;37.50;13.70;;;13.50;99.90;;;;;;7376212;19;20859;-61
2021/09/04 05:42:56;;;;;;;22.60;11.93;;;13.60;99.90;;;;;;7376334;19;20014;-60
2021/09/04 05:45:21;;;;;;;24.60;12.65;;;13.60;99.90;;;;;;7377741;19;20797;-59
2021/09/04 05:47:47;;;;;;;22.02;11.57;;;13.60;99.90;;;;;;7374671;19;20014;-61
2021/09/04 05:50:12;;;;;;;28.10;13.32;;;13.70;99.90;;;;;;7376342;19;20075;-62
2021/09/04 05:52:38;;;;;;;29.77;13.88;;;13.60;99.90;;;;;;7371748;19;20010;-59
2021/09/04 05:55:03;;;;;;;28.42;12.95;;;13.50;99.90;;;;;;7377274;19;20022;-62
2021/09/04 05:57:28;;;;;;;26.25;12.85;;;13.50;99.90;;;;;;7375716;19;20039;-61
2021/09/04 05:59:54;;;;;;;29.33;14.05;;;;;;;;;;7374910;19;20022;-59
2021/09/04 06:02:20;;;;;;;34.38;14.65;;;13.60;99.90;;;;;;7374631;19;20022;-59
2021/09/04 06:04:45;;;;;;;27.67;13.52;;;13.60;99.90;;;;;;7374578;19;20018;-62
2021/09/04 06:07:11;;;;;;;35.08;15.13;;;13.60;99.90;;;;;;7373070;19;20026;-62
2021/09/04 06:09:36;;;;;;;32.70;14.43;;;13.70;99.90;;;;;;7375977;19;20866;-62
2021/09/04 06:12:02;;;;;;;32.30;15.13;;;13.70;99.90;;;;;;7375514;19;20720;-62
2021/09/04 06:14:27;;;;;;;28.23;13.75;;;13.90;99.90;;;;;;7375714;19;20352;-60
2021/09/04 06:16:53;;;;;;;31.60;14.52;;;13.80;99.90;;;;;;7376484;19;20029;-65
2021/09/04 06:19:19;;;;;;;34.72;13.73;;;13.70;99.90;;;;;;7373388;19;20082;-59
2021/09/04 06:21:45;;;;;;;39.67;14.90;;;13.90;99.90;;;;;;7375564;19;20022;-59
2021/09/04 06:24:10;;;;;;;34.75;14.63;;;13.90;99.90;;;;;;7373870;19;20149;-59
2021/09/04 06:26:36;;;;;;;31.88;14.15;;;13.90;99.90;;;;;;7374738;19;20034;-59
2021/09/04 06:29:02;;;;;;;40.25;14.45;;;;;;;;;;7375813;19;20022;-63
2021/09/04 06:31:28;;;;;;;34.88;14.38;;;;;;;;;;7375145;19;20635;-62
2021/09/04 06:33:53;;;;;;;35.03;14.85;;;14.00;99.90;;;;;;7375012;19;20560;-65
2021/09/04 06:36:19;;;;;;;28.90;12.75;;;14.00;99.90;;;;;;7375475;19;20022;-65
2021/09/04 06:38:44;;;;;;;35.10;13.38;;;14.00;99.90;;;;;;7373160;19;20022;-61
2021/09/04 06:41:10;;;;;;;29.90;13.18;;;14.00;99.90;;;;;;7373584;19;20476;-59
2021/09/04 06:43:35;;;;;;;30.73;13.90;;;14.00;99.90;;;;;;7374558;19;20018;-59
2021/09/04 06:46:01;;;;;;;38.33;13.80;;;12.60;99.90;;;;;;7377012;19;20014;-59
2021/09/04 06:48:26;;;;;;;31.00;11.88;;;14.00;99.90;;;;;;7374755;19;20043;-59
2021/09/04 06:50:52;;;;;;;37.00;14.35;;;;;;;;;;7375025;19;20027;-59
2021/09/04 06:53:18;;;;;;;34.67;13.05;;;14.00;99.90;;;;;;7376861;19;20018;-60
2021/09/04 06:55:43;;;;;;;34.83;14.48;;;14.70;99.90;;;;;;7373810;19;20019;-61
2021/09/04 06:58:09;;;;;;;26.02;12.27;;;14.20;99.90;;;;;;7374779;19;20015;-61
2021/09/04 07:00:35;;;;;;;27.90;12.98;;;;;;;;;;7373947;19;20060;-61
2021/09/04 07:03:00;;;;;;;36.80;18.15;;;14.30;99.90;;;;;;7374135;19;20019;-61
2021/09/04 07:05:25;;;;;;;29.85;12.82;;;14.20;99.90;;;;;;7375761;19;20028;-61
2021/09/04 07:07:51;;;;;;;30.00;12.98;;;14.30;99.90;;;;;;7372223;19;20474;-61
2021/09/04 07:10:16;;;;;;;26.58;12.38;;;14.30;99.90;;;;;;7374429;19;20040;-61
2021/09/04 07:12:42;;;;;;;29.38;12.00;;;14.40;99.90;;;;;;7371735;19;20040;-61
2021/09/04 07:15:07;;;;;;;26.50;12.23;;;14.50;99.90;;;;;;7373048;19;20018;-61
2021/09/04 07:17:33;;;;;;;34.50;12.30;;;14.60;99.90;;;;;;7373343;19;20026;-60
2021/09/04 07:19:58;;;;;;;37.67;12.77;;;14.60;99.90;;;;;;7371648;19;20494;-60
2021/09/04 07:22:24;;;;;;;24.63;11.20;;;14.60;99.90;;;;;;7373322;19;20023;-61
2021/09/04 07:24:49;;;;;;;23.70;11.07;;;14.70;99.90;;;;;;7369791;19;20022;-61
2021/09/04 07:27:15;;;;;;;25.90;10.80;;;14.70;99.90;;;;;;7373866;19;20106;-61
2021/09/04 07:29:40;;;;;;;33.25;12.48;;;14.70;99.90;;;;;;7371142;19;20047;-60
2021/09/04 07:32:06;;;;;;;27.33;12.10;;;14.70;99.90;;;;;;7371849;19;20032;-60
2021/09/04 07:34:31;;;;;;;32.13;12.02;;;14.60;99.90;;;;;;7374043;19;20018;-61
2021/09/04 07:36:56;;;;;;;34.00;12.77;;;14.60;99.90;;;;;;7371982;19;20026;-61
2021/09/04 07:39:22;;;;;;;32.80;12.00;;;14.70;99.90;;;;;;7373759;19;20499;-60
2021/09/04 07:41:47;;;;;;;40.58;11.35;;;14.70;99.90;;;;;;7372122;19;20744;-61
2021/09/04 07:44:13;;;;;;;22.63;10.00;;;14.60;99.90;;;;;;7373279;19;20057;-61
2021/09/04 07:46:38;;;;;;;30.45;10.77;;;14.70;99.90;;;;;;7372971;19;20085;-61
2021/09/04 07:49:04;;;;;;;27.92;11.00;;;14.70;99.90;;;;;;7371325;19;20808;-60
2021/09/04 07:51:29;;;;;;;26.00;11.00;;;14.80;99.90;;;;;;7374613;19;20690;-61
2021/09/04 07:53:55;;;;;;;32.35;10.73;;;14.90;99.90;;;;;;7372160;19;20112;-60
2021/09/04 07:56:20;;;;;;;31.83;10.02;;;15.00;99.90;;;;;;7373877;19;20018;-61
2021/09/04 07:58:46;;;;;;;30.75;11.68;;;14.90;99.90;;;;;;7372960;19;20047;-61
2021/09/04 08:01:11;;;;;;;27.35;10.52;;;15.00;99.90;;;;;;7370536;19;20022;-61
2021/09/04 08:03:37;;;;;;;27.08;11.40;;;14.90;99.90;;;;;;7374043;19;20022;-61
2021/09/04 08:06:02;;;;;;;26.05;10.60;;;15.00;99.90;;;;;;7371023;19;20780;-61
2021/09/04 08:08:28;;;;;;;24.30;10.27;;;14.90;99.90;;;;;;7370270;19;20798;-61
2021/09/04 08:10:55;;;;;;;19.17;9.45;;;15.00;99.90;;;;;;7372596;19;20023;-61
2021/09/04 08:13:20;;;;;;;29.77;9.43;;;15.00;99.90;;;;;;7371039;19;20122;-61
2021/09/04 08:15:48;;;;;;;32.67;10.52;;;;;;;;;;7373146;19;20609;-60
2021/09/04 08:18:14;;;;;;;26.30;9.77;;;15.00;99.90;;;;;;7369681;19;20018;-61
2021/09/04 08:20:39;;;;;;;26.05;9.80;;;15.10;99.90;;;;;;7370721;19;20615;-61
2021/09/04 08:23:07;;;;;;;18.08;9.43;;;15.30;99.90;;;;;;7371453;19;20026;-61
2021/09/04 08:25:33;;;;;;;20.92;9.77;;;15.30;99.90;;;;;;7371622;19;20017;-61
2021/09/04 08:27:58;;;;;;;26.98;9.60;;;15.40;99.90;;;;;;7368887;19;20022;-60
2021/09/04 08:30:24;;;;;;;24.60;9.68;;;15.60;99.90;;;;;;7368921;19;20029;-61
2021/09/04 08:32:49;;;;;;;21.92;9.50;;;15.70;99.90;;;;;;7370254;19;20086;-61
2021/09/04 08:35:15;;;;;;;22.80;9.50;;;15.80;99.90;;;;;;7371037;19;20030;-60
2021/09/04 08:37:41;;;;;;;26.17;10.35;;;15.70;99.90;;;;;;7371609;19;20018;-61
2021/09/04 08:40:06;;;;;;;23.88;9.90;;;15.90;99.90;;;;;;7370503;19;20026;-60
2021/09/04 08:42:32;;;;;;;20.08;9.68;;;15.80;99.90;;;;;;7368859;19;20022;-60
2021/09/04 08:44:57;;;;;;;26.63;9.82;;;15.70;99.90;;;;;;7372887;19;20022;-61
2021/09/04 08:47:23;;;;;;;22.20;10.43;;;15.80;99.90;;;;;;7368347;19;20018;-61
2021/09/04 08:49:48;;;;;;;22.50;10.40;;;15.80;99.90;;;;;;7373231;19;20483;-61
2021/09/04 08:52:18;;;;;;;26.52;10.65;;;15.90;99.90;;;;;;7370729;19;20039;-61
2021/09/04 08:54:44;;;;;;;22.40;9.27;;;15.90;99.90;;;;;;7372161;19;20018;-61
2021/09/04 08:57:09;;;;;;;25.15;10.57;;;15.90;99.90;;;;;;7371472;19;20026;-61
2021/09/04 08:59:35;;;;;;;24.25;10.10;;;15.80;99.90;;;;;;7370138;19;20566;-60
2021/09/04 09:02:00;;;;;;;35.20;10.73;;;16.00;99.90;;;;;;7370976;19;20045;-61
2021/09/04 09:04:26;;;;;;;26.90;11.30;;;16.10;99.90;;;;;;7371283;19;20025;-60
2021/09/04 09:06:51;;;;;;;22.77;9.98;;;16.10;99.90;;;;;;7371653;19;20029;-60
2021/09/04 09:09:17;;;;;;;28.92;11.15;;;16.10;99.90;;;;;;7370962;19;20834;-61
2021/09/04 09:11:42;;;;;;;22.55;10.02;;;16.20;99.90;;;;;;7368164;19;20022;-61
2021/09/04 09:14:08;;;;;;;19.98;9.10;;;16.40;99.90;;;;;;7372528;19;20839;-61
2021/09/04 09:16:34;;;;;;;26.58;9.90;;;16.40;99.90;;;;;;7369576;19;20046;-61
2021/09/04 09:19:00;;;;;;;29.77;9.70;;;16.50;99.90;;;;;;7370928;19;20055;-61
2021/09/04 09:21:32;;;;;;;23.35;9.73;;;16.60;99.90;;;;;;7370323;19;20022;-61
2021/09/04 09:23:58;;;;;;;24.00;9.43;;;16.80;99.90;;;;;;7371008;19;20019;-61
2021/09/04 09:26:24;;;;;;;26.92;10.15;;;16.80;99.90;;;;;;7372345;19;20754;-61
2021/09/04 09:28:49;;;;;;;25.52;10.45;;;16.90;99.90;;;;;;7367183;19;20018;-61
2021/09/04 09:31:15;;;;;;;27.10;9.80;;;16.80;99.90;;;;;;7364648;19;21158;-61
2021/09/04 09:33:40;;;;;;;20.75;9.63;;;16.90;99.90;;;;;;7369390;19;20365;-61
2021/09/04 09:36:06;;;;;;;25.38;9.73;;;17.20;99.90;;;;;;7370586;19;20050;-61
2021/09/04 09:38:31;;;;;;;20.35;8.93;;;17.20;99.90;;;;;;7369030;19;20497;-61
2021/09/04 09:40:57;;;;;;;27.80;9.27;;;17.30;99.90;;;;;;7370458;19;20030;-61
2021/09/04 09:43:23;;;;;;;26.85;10.75;;;17.40;99.90;;;;;;7376697;19;20042;-61
2021/09/04 09:45:48;;;;;;;21.90;9.20;;;17.90;99.90;;;;;;7375566;19;20019;-61
2021/09/04 09:48:14;;;;;;;25.27;9.55;;;;;;;;;;7375176;19;20483;-61
2021/09/04 09:50:39;;;;;;;19.27;8.27;;;17.70;99.90;;;;;;7377055;19;20022;-61
2021/09/04 09:53:05;;;;;;;29.20;9.05;;;17.60;99.90;;;;;;7375369;19;20021;-61
2021/09/04 09:55:31;;;;;;;22.20;7.88;;;;;;;;;;7377348;19;20397;-61
2021/09/04 09:57:57;;;;;;;18.85;8.52;;;17.50;99.90;;;;;;7374898;19;20053;-61
2021/09/04 10:00:23;;;;;;;19.42;8.27;;;17.50;99.90;;;;;;7376779;19;20018;-61
2021/09/04 10:02:48;;;;;;;18.92;8.15;;;17.60;99.90;;;;;;7374656;19;20717;-61
2021/09/04 10:05:14;;;;;;;16.80;7.50;;;;;;;;;;7378793;19;20019;-61
2021/09/04 10:07:40;;;;;;;20.95;8.45;;;17.50;99.90;;;;;;7373831;19;20097;-61
2021/09/04 10:10:05;;;;;;;18.95;8.10;;;17.60;99.90;;;;;;7375530;19;20018;-61
2021/09/04 10:12:31;;;;;;;16.60;7.55;;;17.70;99.90;;;;;;7373070;19;20018;-61
2021/09/04 10:14:56;;;;;;;16.17;7.85;;;17.70;99.90;;;;;;7374900;19;20022;-61
2021/09/04 10:17:22;;;;;;;21.05;7.82;;;17.80;99.90;;;;;;7376505;19;20014;-61
2021/09/04 10:19:49;;;;;;;16.08;7.78;;;17.90;99.90;;;;;;7376396;19;20921;-61
2021/09/04 10:22:14;;;;;;;20.67;8.32;;;17.90;99.90;;;;;;7372776;19;20018;-61
2021/09/04 10:24:40;;;;;;;21.75;8.18;;;;;;;;;;7376450;19;20029;-61
2021/09/04 10:27:06;;;;;;;15.30;7.88;;;18.10;99.90;;;;;;7373513;19;20022;-61
2021/09/04 10:29:31;;;;;;;17.30;7.93;;;18.30;99.90;;;;;;7374589;19;20027;-61
2021/09/04 10:31:57;;;;;;;15.45;7.57;;;18.30;99.90;;;;;;7372947;19;20114;-61
2021/09/04 10:34:22;;;;;;;17.70;8.88;;;18.40;99.90;;;;;;7376445;19;20022;-61
2021/09/04 10:36:48;;;;;;;16.75;8.25;;;18.50;99.90;;;;;;7375490;19;20709;-61
2021/09/04 10:39:14;;;;;;;15.60;7.53;;;;;;;;;;7371706;19;20026;-61
2021/09/04 10:41:39;;;;;;;18.55;8.25;;;18.60;99.90;;;;;;7375620;19;20038;-61
2021/09/04 10:44:05;;;;;;;18.92;8.40;;;18.70;99.90;;;;;;7374473;19;20019;-61
2021/09/04 10:46:30;;;;;;;19.58;8.35;;;18.70;99.90;;;;;;7376261;19;20784;-61
2021/09/04 10:48:56;;;;;;;19.98;7.97;;;18.80;99.90;;;;;;7375115;19;20018;-61
2021/09/04 10:51:21;;;;;;;14.52;7.43;;;18.50;99.90;;;;;;7373475;19;20026;-61
2021/09/04 10:53:47;;;;;;;15.38;7.55;;;18.40;99.90;;;;;;7375158;19;20094;-61
2021/09/04 10:56:12;;;;;;;17.13;7.47;;;18.50;99.90;;;;;;7374899;19;20022;-61
2021/09/04 10:58:38;;;;;;;16.20;6.80;;;18.60;99.90;;;;;;7374384;19;20018;-61
2021/09/04 11:01:04;;;;;;;19.63;7.57;;;;;;;;;;7372933;19;20025;-61
2021/09/04 11:03:29;;;;;;;25.55;7.45;;;18.80;99.90;;;;;;7374438;19;20086;-61
2021/09/04 11:05:55;;;;;;;17.33;8.88;;;18.60;99.90;;;;;;7376347;19;20050;-61
2021/09/04 11:08:20;;;;;;;22.67;7.97;;;18.60;99.90;;;;;;7370277;19;20039;-61
2021/09/04 11:10:46;;;;;;;17.98;8.98;;;18.80;99.90;;;;;;7375241;19;20023;-61
2021/09/04 11:13:11;;;;;;;13.73;6.90;;;18.80;99.90;;;;;;7375984;19;20047;-61
2021/09/04 11:15:37;;;;;;;16.45;7.22;;;19.10;99.90;;;;;;7372760;19;20081;-61
2021/09/04 11:18:02;;;;;;;20.73;8.18;;;19.20;99.90;;;;;;7374038;19;20364;-61
2021/09/04 11:20:28;;;;;;;20.77;7.03;;;19.10;99.90;;;;;;7371219;19;20589;-61
2021/09/04 11:22:53;;;;;;;14.82;7.43;;;19.10;99.90;;;;;;7372091;19;20046;-61
2021/09/04 11:25:19;;;;;;;24.48;8.70;;;19.10;99.90;;;;;;7372557;19;20019;-61
2021/09/04 11:27:44;;;;;;;14.00;6.85;;;18.90;99.90;;;;;;7373998;19;21059;-61
2021/09/04 11:30:09;;;;;;;13.85;7.10;;;19.10;99.90;;;;;;7373878;19;20033;-61
2021/09/04 11:32:36;;;;;;;18.42;7.93;;;19.20;99.90;;;;;;7370612;19;20018;-61
2021/09/04 11:35:01;;;;;;;15.82;7.20;;;19.30;99.90;;;;;;7375415;19;20116;-61
2021/09/04 11:37:27;;;;;;;14.85;7.43;;;19.20;99.90;;;;;;7371241;19;20019;-61
2021/09/04 11:39:52;;;;;;;19.63;7.75;;;19.30;99.90;;;;;;7373465;19;20023;-61
2021/09/04 11:42:18;;;;;;;15.73;7.60;;;19.30;99.90;;;;;;7372465;19;20107;-61
2021/09/04 11:44:43;;;;;;;17.40;7.57;;;19.30;99.90;;;;;;7372643;19;20011;-61
2021/09/04 11:47:09;;;;;;;14.35;7.15;;;19.20;99.90;;;;;;7373263;19;20034;-61
2021/09/04 11:49:34;;;;;;;14.43;7.57;;;19.30;99.90;;;;;;7372648;19;20022;-61
2021/09/04 11:52:00;;;;;;;15.98;7.35;;;19.30;99.90;;;;;;7371788;19;20808;-61
2021/09/04 11:54:25;;;;;;;12.85;6.93;;;19.30;99.90;;;;;;7372818;19;20014;-61
2021/09/04 11:56:51;;;;;;;19.75;7.10;;;19.30;99.90;;;;;;7372629;19;20037;-61
2021/09/04 11:59:17;;;;;;;14.98;6.45;;;19.30;99.90;;;;;;7372567;19;20010;-61
2021/09/04 12:01:42;;;;;;;23.40;10.70;;;19.30;99.90;;;;;;7371164;19;20100;-61
2021/09/04 12:04:08;;;;;;;15.95;7.72;;;19.40;99.90;;;;;;7372551;19;20042;-61
2021/09/04 12:06:33;;;;;;;20.63;7.63;;;19.40;99.90;;;;;;7372326;19;20018;-61
2021/09/04 12:08:59;;;;;;;16.05;7.22;;;19.40;99.90;;;;;;7372355;19;20018;-61
2021/09/04 12:11:25;;;;;;;19.33;7.35;;;19.40;99.90;;;;;;7373267;19;20687;-61
2021/09/04 12:13:51;;;;;;;15.55;6.68;;;;;;;;;;7372035;19;20014;-61
2021/09/04 12:16:16;;;;;;;15.80;7.20;;;19.30;99.90;;;;;;7370697;19;20014;-61
2021/09/04 12:18:43;;;;;;;18.48;7.10;;;19.40;99.90;;;;;;7368566;19;20014;-61
2021/09/04 12:21:09;;;;;;;15.23;7.35;;;19.50;99.90;;;;;;7370236;19;20018;-61
2021/09/04 12:23:34;;;;;;;16.83;8.38;;;19.40;99.90;;;;;;7373389;19;20532;-61
2021/09/04 12:26:00;;;;;;;17.73;7.38;;;19.60;99.90;;;;;;7370067;19;20014;-61
2021/09/04 12:28:25;;;;;;;12.90;7.20;;;19.50;99.90;;;;;;7370796;19;20018;-61
2021/09/04 12:30:50;;;;;;;18.95;7.07;;;19.40;99.90;;;;;;7370446;19;20042;-61